Time;durP1;ratioP1;P1;durP2;ratioP2;P2;SDS_P1;SDS_P2;PMS_P1;PMS_P2;Temp;Humidity;BMP_temperature;BMP_pressure;BME280_temperature;BME280_humidity;BME280_pressure;Samples;Min_cycle;Max_cycle;Signal;HPM_P1;HPM_P2
2024/03/21 00:01:10;;;;;;;7.03;6.20;;;12.20;54.80;;;;;;5007664;28;20687;-59
2024/03/21 00:03:36;;;;;;;8.47;6.17;;;12.20;57.20;;;;;;5013618;28;20213;-58
2024/03/21 00:06:02;;;;;;;7.87;6.47;;;12.30;57.80;;;;;;5013729;28;20214;-59
2024/03/21 00:08:29;;;;;;;12.67;9.37;;;12.10;58.00;;;;;;5008885;28;20232;-59
2024/03/21 00:10:54;;;;;;;7.70;6.63;;;12.00;58.50;;;;;;5006249;28;20215;-59
2024/03/21 00:13:21;;;;;;;7.23;6.40;;;12.00;58.80;;;;;;5008535;28;20721;-59
2024/03/21 00:15:46;;;;;;;7.13;6.13;;;12.00;58.80;;;;;;5010853;28;20206;-59
2024/03/21 00:18:14;;;;;;;7.27;6.17;;;12.00;58.80;;;;;;5007394;28;20206;-58
2024/03/21 00:20:39;;;;;;;6.80;5.73;;;12.00;58.80;;;;;;5009634;28;20257;-59
2024/03/21 00:23:06;;;;;;;6.63;5.73;;;12.00;58.90;;;;;;5012027;28;20697;-59
2024/03/21 00:25:32;;;;;;;7.83;6.50;;;11.90;59.20;;;;;;5005964;28;20272;-59
2024/03/21 00:27:59;;;;;;;7.40;6.20;;;11.80;59.50;;;;;;5007865;28;20202;-59
2024/03/21 00:30:25;;;;;;;6.43;5.83;;;11.80;60.00;;;;;;5003783;28;20676;-59
2024/03/21 00:32:51;;;;;;;7.13;5.87;;;11.70;60.30;;;;;;5005416;28;20265;-59
2024/03/21 00:35:17;;;;;;;6.53;5.80;;;11.80;60.20;;;;;;5003572;28;20215;-59
2024/03/21 00:37:43;;;;;;;7.27;5.97;;;11.90;59.70;;;;;;5003279;28;20586;-59
2024/03/21 00:40:09;;;;;;;6.47;5.77;;;11.70;59.60;;;;;;5009601;28;20241;-59
2024/03/21 00:42:39;;;;;;;5.67;5.10;;;11.60;60.40;;;;;;5013734;28;20249;-59
2024/03/21 00:45:05;;;;;;;6.13;5.43;;;11.60;60.30;;;;;;5004591;28;20804;-59
2024/03/21 00:47:31;;;;;;;5.87;5.17;;;11.50;60.70;;;;;;5010746;28;20201;-59
2024/03/21 00:49:57;;;;;;;6.20;4.90;;;11.40;61.20;;;;;;5009806;28;20230;-59
2024/03/21 00:52:23;;;;;;;5.17;4.50;;;11.20;61.20;;;;;;5008300;28;20972;-59
2024/03/21 00:54:49;;;;;;;5.43;4.93;;;11.30;61.60;;;;;;5004290;28;20844;-59
2024/03/21 00:57:16;;;;;;;5.00;4.50;;;11.30;61.80;;;;;;5007492;28;20295;-59
2024/03/21 00:59:45;;;;;;;4.93;4.20;;;11.30;61.80;;;;;;5019114;28;20217;-58
2024/03/21 01:02:13;;;;;;;5.23;4.43;;;11.40;61.40;;;;;;5011025;28;20222;-59
2024/03/21 01:04:39;;;;;;;5.33;4.40;;;11.30;61.70;;;;;;5011678;28;20218;-58
2024/03/21 01:07:08;;;;;;;4.90;4.47;;;11.10;62.40;;;;;;5011040;28;20562;-58
2024/03/21 01:09:33;;;;;;;5.13;4.53;;;11.00;62.70;;;;;;5012046;28;20312;-57
2024/03/21 01:12:00;;;;;;;4.60;4.20;;;11.00;62.70;;;;;;5003067;28;20275;-59
2024/03/21 01:14:25;;;;;;;4.23;3.83;;;11.00;62.50;;;;;;5004548;28;20218;-59
2024/03/21 01:16:52;;;;;;;5.33;4.10;;;11.10;62.40;;;;;;5004344;28;20210;-59
2024/03/21 01:19:17;;;;;;;6.20;3.90;;;11.10;62.60;;;;;;5007970;28;20205;-58
2024/03/21 01:21:44;;;;;;;4.37;3.70;;;11.00;62.60;;;;;;5012158;28;20233;-59
2024/03/21 01:24:10;;;;;;;4.17;3.77;;;11.00;62.90;;;;;;5001939;28;20214;-58
2024/03/21 01:26:36;;;;;;;4.30;3.90;;;11.00;62.90;;;;;;5008220;28;20237;-59
2024/03/21 01:29:02;;;;;;;5.10;4.20;;;10.90;63.30;;;;;;5010866;28;20341;-57
2024/03/21 01:31:28;;;;;;;6.27;4.33;;;10.80;63.60;;;;;;5007760;28;20240;-59
2024/03/21 01:33:54;;;;;;;3.73;3.43;;;10.90;63.30;;;;;;5006888;28;20228;-59
2024/03/21 01:36:21;;;;;;;4.27;3.80;;;11.00;63.20;;;;;;5012043;28;20206;-59
2024/03/21 01:38:46;;;;;;;4.27;3.87;;;10.80;63.50;;;;;;5005712;28;20300;-59
2024/03/21 01:41:13;;;;;;;4.50;4.10;;;10.80;63.60;;;;;;5003424;28;20237;-59
2024/03/21 01:43:38;;;;;;;4.97;3.83;;;10.50;64.40;;;;;;5001250;28;20209;-59
2024/03/21 01:46:05;;;;;;;4.87;4.37;;;10.70;64.60;;;;;;5004687;28;20204;-58
2024/03/21 01:48:30;;;;;;;5.37;4.47;;;10.80;64.20;;;;;;5013487;28;20274;-59
2024/03/21 01:50:57;;;;;;;4.63;4.10;;;10.80;64.50;;;;;;5004091;28;20315;-59
2024/03/21 01:53:22;;;;;;;4.40;3.87;;;10.60;63.90;;;;;;4998339;28;20769;-57
2024/03/21 01:55:49;;;;;;;5.27;3.70;;;10.60;64.50;;;;;;5003527;28;20202;-59
2024/03/21 01:58:15;;;;;;;4.43;4.03;;;10.80;64.30;;;;;;5011269;28;20300;-58
2024/03/21 02:00:41;;;;;;;4.93;3.60;;;10.70;64.20;;;;;;5003514;28;20228;-58
2024/03/21 02:03:07;;;;;;;5.63;4.17;;;10.80;63.80;;;;;;5002736;28;20230;-59
2024/03/21 02:05:33;;;;;;;4.57;3.73;;;10.80;63.90;;;;;;5006202;28;20302;-59
2024/03/21 02:07:59;;;;;;;3.93;3.60;;;10.70;64.20;;;;;;5003315;28;20215;-59
2024/03/21 02:10:26;;;;;;;4.73;3.73;;;10.70;64.10;;;;;;5006336;28;20224;-59
2024/03/21 02:12:53;;;;;;;4.33;3.93;;;10.70;64.10;;;;;;5011515;28;20308;-59
2024/03/21 02:15:20;;;;;;;4.83;3.90;;;10.70;63.80;;;;;;5005944;28;20238;-59
2024/03/21 02:17:46;;;;;;;4.10;3.73;;;10.70;64.10;;;;;;5005274;28;20218;-59
2024/03/21 02:20:13;;;;;;;3.70;3.40;;;10.70;63.80;;;;;;5005378;28;20208;-59
2024/03/21 02:22:38;;;;;;;3.50;3.20;;;10.70;64.00;;;;;;5007323;28;20229;-59
2024/03/21 02:25:05;;;;;;;4.00;3.60;;;10.70;63.90;;;;;;5002709;28;20222;-58
2024/03/21 02:27:31;;;;;;;3.93;3.57;;;10.70;64.00;;;;;;5009434;28;20212;-59
2024/03/21 02:29:57;;;;;;;3.47;3.17;;;10.60;64.00;;;;;;5004160;28;20236;-59
2024/03/21 02:32:23;;;;;;;3.67;3.20;;;10.60;64.40;;;;;;5008320;28;20240;-59
2024/03/21 02:34:49;;;;;;;4.03;3.63;;;10.60;64.70;;;;;;5005633;28;20209;-58
2024/03/21 02:37:15;;;;;;;3.30;3.00;;;10.50;64.40;;;;;;5012218;28;20265;-59
2024/03/21 02:39:42;;;;;;;3.63;3.33;;;10.60;64.60;;;;;;5006141;28;20195;-59
2024/03/21 02:42:08;;;;;;;3.57;3.27;;;10.60;64.30;;;;;;5002847;28;20235;-59
2024/03/21 02:44:35;;;;;;;3.30;3.00;;;10.60;64.10;;;;;;5003303;28;20206;-58
2024/03/21 02:47:01;;;;;;;3.53;3.10;;;10.50;64.20;;;;;;5004022;28;20631;-59
2024/03/21 02:49:27;;;;;;;3.10;2.80;;;10.50;50.00;;;;;;5006403;28;20219;-59
2024/03/21 02:51:54;;;;;;;3.10;2.80;;;10.50;49.90;;;;;;5006492;28;20225;-59
2024/03/21 02:54:20;;;;;;;4.13;3.43;;;10.60;49.60;;;;;;5002598;28;20262;-59
2024/03/21 02:56:46;;;;;;;3.40;2.90;;;10.60;49.60;;;;;;4999053;28;20208;-59
2024/03/21 02:59:13;;;;;;;3.17;2.87;;;10.60;49.60;;;;;;5012068;28;20211;-59
2024/03/21 03:01:38;;;;;;;3.03;2.80;;;10.60;49.60;;;;;;5006692;28;20250;-59
2024/03/21 03:04:05;;;;;;;3.40;2.80;;;10.60;49.60;;;;;;5002681;28;20568;-58
2024/03/21 03:06:30;;;;;;;2.40;2.20;;;10.70;49.60;;;;;;5011710;28;20667;-59
2024/03/21 03:08:57;;;;;;;2.80;2.60;;;10.60;49.60;;;;;;5013739;28;20196;-59
2024/03/21 03:11:23;;;;;;;3.40;2.67;;;10.60;49.60;;;;;;5013426;28;20227;-59
2024/03/21 03:13:49;;;;;;;2.57;2.37;;;10.60;49.60;;;;;;5007048;28;20539;-59
2024/03/21 03:16:15;;;;;;;2.60;2.40;;;10.70;49.30;;;;;;5009976;28;20220;-58
2024/03/21 03:18:42;;;;;;;3.00;2.77;;;10.60;49.50;;;;;;5010657;28;20203;-59
2024/03/21 03:21:07;;;;;;;2.93;2.73;;;10.60;49.60;;;;;;4999083;28;20200;-58
2024/03/21 03:23:34;;;;;;;2.70;2.07;;;10.70;49.30;;;;;;5014804;28;20202;-58
2024/03/21 03:25:59;;;;;;;2.87;2.67;;;10.70;49.20;;;;;;5005748;28;20214;-58
2024/03/21 03:28:26;;;;;;;2.50;2.30;;;10.70;49.00;;;;;;5011512;28;20205;-58
2024/03/21 03:30:51;;;;;;;2.60;2.40;;;10.70;49.00;;;;;;5013205;28;20227;-59
2024/03/21 03:36:02;;;;;;;2.40;2.20;;;10.70;48.90;;;;;;5004358;28;20712;-58
2024/03/21 03:38:29;;;;;;;5.63;2.60;;;10.80;48.70;;;;;;5013573;28;20672;-58
2024/03/21 03:40:55;;;;;;;2.33;2.13;;;10.80;48.60;;;;;;5005595;28;20579;-59
2024/03/21 03:43:22;;;;;;;3.83;2.70;;;10.80;48.60;;;;;;5004420;28;20248;-58
2024/03/21 03:45:48;;;;;;;2.70;2.10;;;10.80;49.30;;;;;;5011141;28;20663;-58
2024/03/21 03:48:15;;;;;;;3.70;2.60;;;10.80;48.50;;;;;;5015753;28;20212;-58
2024/03/21 03:50:41;;;;;;;3.27;2.17;;;10.60;48.70;;;;;;5012166;28;20220;-57
2024/03/21 03:53:07;;;;;;;2.50;2.30;;;10.60;49.00;;;;;;5004000;28;20227;-57
2024/03/21 03:55:33;;;;;;;2.60;2.40;;;10.80;48.90;;;;;;5006672;28;20212;-59
2024/03/21 03:57:59;;;;;;;2.67;2.30;;;10.70;48.80;;;;;;5008200;28;20758;-59
2024/03/21 04:00:25;;;;;;;2.43;2.30;;;10.60;48.90;;;;;;5012940;28;20215;-59
2024/03/21 04:02:52;;;;;;;2.60;2.40;;;10.60;49.00;;;;;;5006435;28;20225;-59
2024/03/21 04:05:17;;;;;;;2.50;2.30;;;10.70;48.70;;;;;;5008711;28;20284;-58
2024/03/21 04:07:44;;;;;;;2.47;2.27;;;10.60;49.10;;;;;;5004902;28;20228;-59
2024/03/21 04:10:10;;;;;;;2.77;2.50;;;10.60;49.00;;;;;;5007446;28;20234;-59
2024/03/21 04:12:36;;;;;;;3.57;2.10;;;10.60;48.90;;;;;;5004390;28;20241;-59
2024/03/21 04:15:03;;;;;;;2.97;2.20;;;10.50;49.00;;;;;;4999791;28;20510;-58
2024/03/21 04:17:29;;;;;;;2.80;2.10;;;10.60;48.80;;;;;;5008040;28;20211;-58
2024/03/21 04:19:55;;;;;;;2.37;2.17;;;10.60;48.90;;;;;;5008323;28;20232;-59
2024/03/21 04:22:21;;;;;;;2.80;2.60;;;10.60;49.50;;;;;;5007938;28;20267;-58
2024/03/21 04:24:47;;;;;;;2.60;2.40;;;10.60;49.80;;;;;;5007331;28;20210;-59
2024/03/21 04:27:14;;;;;;;2.40;2.20;;;10.60;49.60;;;;;;5006891;28;20203;-59
2024/03/21 04:29:39;;;;;;;2.23;2.00;;;10.60;49.10;;;;;;5006542;28;20299;-58
2024/03/21 04:32:06;;;;;;;2.37;2.17;;;10.60;49.60;;;;;;5000031;28;20307;-59
2024/03/21 04:34:31;;;;;;;2.13;1.93;;;10.60;49.20;;;;;;5009917;28;20579;-58
2024/03/21 04:36:58;;;;;;;2.40;2.27;;;10.50;48.90;;;;;;5009702;28;20208;-57
2024/03/21 04:39:24;;;;;;;2.93;2.47;;;10.50;49.40;;;;;;5003957;28;20207;-58
2024/03/21 04:41:51;;;;;;;2.07;1.97;;;10.50;49.20;;;;;;5006383;28;20219;-59
2024/03/21 04:44:18;;;;;;;2.77;2.30;;;10.40;49.40;;;;;;5004155;28;20652;-59
2024/03/21 04:46:44;;;;;;;2.53;2.20;;;10.40;49.40;;;;;;5012103;28;20204;-58
2024/03/21 04:49:11;;;;;;;2.40;2.20;;;10.40;49.10;;;;;;5007829;28;20707;-58
2024/03/21 04:51:36;;;;;;;2.30;2.10;;;10.50;48.50;;;;;;5009006;28;20590;-58
2024/03/21 04:54:03;;;;;;;2.43;2.30;;;10.50;48.60;;;;;;5011491;28;20210;-59
2024/03/21 04:56:28;;;;;;;2.80;2.10;;;10.50;48.60;;;;;;5009886;28;20212;-58
2024/03/21 04:58:55;;;;;;;2.30;2.10;;;10.50;48.40;;;;;;5007226;28;20201;-59
2024/03/21 05:01:21;;;;;;;2.63;2.43;;;10.50;48.60;;;;;;5012694;28;20305;-58
2024/03/21 05:03:47;;;;;;;2.50;2.30;;;10.60;48.40;;;;;;5010615;28;20687;-59
2024/03/21 05:06:13;;;;;;;2.40;2.07;;;10.60;48.50;;;;;;5010105;28;20212;-57
2024/03/21 05:08:39;;;;;;;2.20;2.00;;;10.50;48.40;;;;;;5001269;28;20689;-59
2024/03/21 05:11:05;;;;;;;2.30;2.10;;;10.50;48.50;;;;;;5006270;28;20259;-59
2024/03/21 05:13:31;;;;;;;2.87;2.30;;;10.50;48.50;;;;;;5006286;28;20209;-59
2024/03/21 05:15:57;;;;;;;3.60;2.27;;;10.60;48.50;;;;;;5012509;28;20201;-59
2024/03/21 05:18:24;;;;;;;2.70;2.50;;;10.50;48.60;;;;;;5009851;28;20207;-59
2024/03/21 05:20:49;;;;;;;3.50;2.40;;;10.60;48.30;;;;;;5001292;28;20208;-58
2024/03/21 05:23:16;;;;;;;2.60;2.40;;;10.50;48.50;;;;;;5006545;28;20231;-59
2024/03/21 05:25:41;;;;;;;2.40;2.10;;;10.50;48.60;;;;;;5005034;28;20222;-59
2024/03/21 05:28:08;;;;;;;3.37;2.47;;;10.60;48.60;;;;;;5002911;28;20203;-58
2024/03/21 05:30:33;;;;;;;4.17;2.30;;;10.50;48.70;;;;;;5014040;28;20227;-59
2024/03/21 05:33:00;;;;;;;4.07;2.60;;;10.50;48.70;;;;;;5005680;28;20220;-59
2024/03/21 05:35:25;;;;;;;4.23;2.17;;;10.60;48.70;;;;;;5012613;28;20228;-59
2024/03/21 05:37:52;;;;;;;3.37;2.40;;;10.60;48.30;;;;;;5002627;28;20635;-59
2024/03/21 05:40:18;;;;;;;4.37;2.20;;;10.60;48.90;;;;;;5002756;28;20213;-59
2024/03/21 05:42:44;;;;;;;2.70;2.50;;;10.60;49.40;;;;;;4994746;28;20240;-59
2024/03/21 05:45:10;;;;;;;2.40;2.20;;;10.60;48.80;;;;;;5005555;28;20215;-59
2024/03/21 05:47:36;;;;;;;6.83;2.20;;;10.70;48.90;;;;;;5010515;28;20205;-58
2024/03/21 05:50:03;;;;;;;2.30;1.83;;;10.70;48.80;;;;;;5002213;28;20233;-57
2024/03/21 05:52:30;;;;;;;2.40;2.20;;;10.60;49.00;;;;;;5002432;28;20260;-57
2024/03/21 05:54:55;;;;;;;5.37;2.33;;;10.70;49.30;;;;;;5005704;28;20205;-58
2024/03/21 05:57:22;;;;;;;3.20;2.37;;;10.70;48.80;;;;;;5009088;28;20212;-60
2024/03/21 05:59:47;;;;;;;2.23;2.10;;;10.80;48.20;;;;;;5005447;28;20211;-60
2024/03/21 06:02:14;;;;;;;2.43;2.23;;;10.80;48.60;;;;;;5007767;28;20273;-59
2024/03/21 06:04:40;;;;;;;2.13;2.00;;;10.90;47.70;;;;;;4958888;28;1246784;-59
2024/03/21 06:07:06;;;;;;;2.93;2.17;;;10.90;47.60;;;;;;5005911;28;20211;-60
2024/03/21 06:09:32;;;;;;;5.93;2.20;;;10.90;47.80;;;;;;5008642;28;20208;-59
2024/03/21 06:11:58;;;;;;;4.07;2.20;;;10.90;47.90;;;;;;4997544;28;20269;-60
2024/03/21 06:14:24;;;;;;;3.00;2.30;;;11.00;48.20;;;;;;5002144;28;20217;-59
2024/03/21 06:16:51;;;;;;;2.40;2.20;;;11.00;48.00;;;;;;5008769;28;20963;-62
2024/03/21 06:19:16;;;;;;;3.03;2.53;;;11.20;47.60;;;;;;5007642;28;20207;-59
2024/03/21 06:21:43;;;;;;;2.07;1.97;;;11.30;47.30;;;;;;5004504;28;20328;-59
2024/03/21 06:24:09;;;;;;;3.90;2.47;;;11.40;47.30;;;;;;5002357;28;20221;-59
2024/03/21 06:26:36;;;;;;;3.80;2.37;;;11.40;47.20;;;;;;5007681;28;20201;-59
2024/03/21 06:29:02;;;;;;;4.10;2.60;;;;;;;;;;5003509;28;20221;-59
2024/03/21 06:31:29;;;;;;;2.27;1.97;;;;;;;;;;5009535;28;20244;-59
2024/03/21 06:33:54;;;;;;;2.30;2.10;;;12.10;92.20;;;;;;5009672;28;20217;-59
2024/03/21 06:36:21;;;;;;;2.67;2.00;;;12.10;45.70;;;;;;5005480;28;20213;-59
2024/03/21 06:38:47;;;;;;;2.27;2.07;;;12.10;44.90;;;;;;5004391;28;20216;-59
2024/03/21 06:41:13;;;;;;;1.93;1.83;;;12.10;45.30;;;;;;5006310;28;20585;-59
2024/03/21 06:43:39;;;;;;;2.93;2.00;;;12.10;45.70;;;;;;5007490;28;20312;-59
2024/03/21 06:46:06;;;;;;;4.63;2.23;;;12.10;45.40;;;;;;5006802;28;20210;-60
2024/03/21 06:48:31;;;;;;;2.23;2.07;;;12.00;45.70;;;;;;5014736;28;20217;-60
2024/03/21 06:50:58;;;;;;;2.73;2.10;;;12.00;46.30;;;;;;5006217;28;20721;-59
2024/03/21 06:53:26;;;;;;;5.97;2.00;;;12.00;46.10;;;;;;5007848;28;20313;-60
2024/03/21 06:55:53;;;;;;;2.03;1.83;;;12.10;46.20;;;;;;5001639;28;20202;-59
2024/03/21 06:58:18;;;;;;;3.53;2.30;;;12.10;46.00;;;;;;5014975;28;20631;-60
2024/03/21 07:00:46;;;;;;;3.63;2.10;;;;;;;;;;5013764;28;20257;-60
2024/03/21 07:03:13;;;;;;;4.50;2.30;;;12.30;44.90;;;;;;5006405;28;20601;-58
2024/03/21 07:05:40;;;;;;;2.67;2.20;;;12.30;45.90;;;;;;5009110;28;20206;-58
2024/03/21 07:08:06;;;;;;;3.30;1.80;;;12.40;45.80;;;;;;5007447;28;20229;-60
2024/03/21 07:10:33;;;;;;;2.70;2.40;;;12.40;45.60;;;;;;5012365;28;20745;-59
2024/03/21 07:13:00;;;;;;;2.80;2.60;;;12.40;45.60;;;;;;5007039;28;20233;-60
2024/03/21 07:15:25;;;;;;;2.63;2.20;;;12.50;45.80;;;;;;5007220;28;20218;-59
2024/03/21 07:17:52;;;;;;;2.20;2.00;;;12.70;45.80;;;;;;5012702;28;20237;-59
2024/03/21 07:20:17;;;;;;;3.73;2.20;;;12.80;45.20;;;;;;4996068;28;20219;-60
2024/03/21 07:22:44;;;;;;;2.03;1.80;;;13.10;44.80;;;;;;5001217;28;20229;-60
2024/03/21 07:25:10;;;;;;;4.30;1.93;;;13.40;44.80;;;;;;5006592;28;20241;-59
2024/03/21 07:27:37;;;;;;;1.90;1.80;;;13.60;44.00;;;;;;5004825;28;20608;-60
2024/03/21 07:30:08;;;;;;;6.10;1.80;;;13.80;53.20;;;;;;5006423;28;20223;-60
2024/03/21 07:32:34;;;;;;;2.17;1.80;;;13.80;57.80;;;;;;5000402;28;20224;-60
2024/03/21 07:35:00;;;;;;;2.37;1.80;;;13.90;43.40;;;;;;5009800;28;20677;-58
2024/03/21 07:37:26;;;;;;;2.13;1.93;;;14.00;43.40;;;;;;5009762;28;20205;-60
2024/03/21 07:39:52;;;;;;;5.77;2.10;;;14.10;43.50;;;;;;5002164;28;20202;-59
2024/03/21 07:42:19;;;;;;;3.27;2.03;;;14.10;43.60;;;;;;5002737;28;20586;-60
2024/03/21 07:44:44;;;;;;;3.23;2.30;;;14.20;47.10;;;;;;5007771;28;20209;-60
2024/03/21 07:47:11;;;;;;;2.73;1.93;;;14.10;46.40;;;;;;5014621;28;20202;-58
2024/03/21 07:49:37;;;;;;;3.43;2.10;;;14.00;43.90;;;;;;5006485;28;20204;-59
2024/03/21 07:52:03;;;;;;;3.33;2.00;;;14.00;43.90;;;;;;5004420;28;20287;-60
2024/03/21 07:54:29;;;;;;;3.43;2.30;;;14.10;44.30;;;;;;5008855;28;20214;-60
2024/03/21 07:56:56;;;;;;;3.23;2.10;;;14.10;44.40;;;;;;5006454;28;20200;-60
2024/03/21 07:59:22;;;;;;;2.73;2.37;;;14.20;44.20;;;;;;4997469;28;20300;-59
2024/03/21 08:01:49;;;;;;;2.97;2.10;;;14.30;44.30;;;;;;5011323;28;20663;-59
2024/03/21 08:04:15;;;;;;;4.20;2.00;;;14.30;44.40;;;;;;5014596;28;20228;-58
2024/03/21 08:06:41;;;;;;;2.50;2.30;;;14.20;44.30;;;;;;5014254;28;20693;-58
2024/03/21 08:09:09;;;;;;;3.50;2.10;;;14.20;44.40;;;;;;5014496;28;20216;-59
2024/03/21 08:11:35;;;;;;;3.37;2.10;;;14.30;44.80;;;;;;5004778;28;20232;-59
2024/03/21 08:14:01;;;;;;;4.33;2.77;;;14.50;44.60;;;;;;5013003;28;20631;-59
2024/03/21 08:16:28;;;;;;;2.77;2.40;;;14.60;53.60;;;;;;5002326;28;20614;-59
2024/03/21 08:18:54;;;;;;;2.83;2.27;;;14.60;48.60;;;;;;4996171;28;20201;-60
2024/03/21 08:21:21;;;;;;;3.03;2.50;;;;;;;;;;5003701;28;20197;-60
2024/03/21 08:23:47;;;;;;;5.17;2.47;;;14.50;83.10;;;;;;5002790;28;20211;-58
2024/03/21 08:26:13;;;;;;;4.90;2.47;;;15.10;44.50;;;;;;5008443;28;20209;-59
2024/03/21 08:28:39;;;;;;;4.13;2.57;;;15.20;43.90;;;;;;5007451;28;20202;-59
2024/03/21 08:31:05;;;;;;;3.40;2.60;;;15.10;44.40;;;;;;5011443;28;20374;-60
2024/03/21 08:33:31;;;;;;;2.73;2.30;;;15.10;44.20;;;;;;5006439;28;20223;-56
2024/03/21 08:35:57;;;;;;;4.53;2.63;;;15.20;44.00;;;;;;5010883;28;20214;-58
2024/03/21 08:38:23;;;;;;;2.93;2.30;;;15.50;43.80;;;;;;5005691;28;20207;-58
2024/03/21 08:40:49;;;;;;;4.67;2.30;;;15.80;43.20;;;;;;5008563;28;20679;-58
2024/03/21 08:43:15;;;;;;;2.70;2.50;;;16.00;42.80;;;;;;5004631;28;20232;-60
2024/03/21 08:45:42;;;;;;;4.30;2.40;;;15.80;42.80;;;;;;5011754;28;20203;-59
2024/03/21 08:48:09;;;;;;;2.77;2.07;;;15.60;43.10;;;;;;5004639;28;20301;-60
2024/03/21 08:50:35;;;;;;;4.30;2.17;;;15.50;43.40;;;;;;5012304;28;20219;-59
2024/03/21 08:53:01;;;;;;;4.00;2.50;;;15.30;43.70;;;;;;4986843;28;20815;-59
2024/03/21 08:55:28;;;;;;;3.33;2.90;;;15.20;43.90;;;;;;5005161;28;20224;-60
2024/03/21 08:57:53;;;;;;;3.93;1.80;;;15.00;43.90;;;;;;5010448;28;20328;-60
2024/03/21 09:00:20;;;;;;;3.47;1.70;;;14.90;43.90;;;;;;4997198;28;20227;-60
2024/03/21 09:02:45;;;;;;;7.43;3.67;;;14.90;43.40;;;;;;4988206;28;21867;-58
2024/03/21 09:05:12;;;;;;;2.53;2.00;;;14.80;43.00;;;;;;4997918;28;20221;-59
2024/03/21 09:07:37;;;;;;;4.43;2.03;;;14.80;44.00;;;;;;5008182;28;20240;-59
2024/03/21 09:10:04;;;;;;;4.97;2.40;;;14.70;43.30;;;;;;5006446;28;20571;-59
2024/03/21 09:12:30;;;;;;;3.73;1.97;;;14.70;44.10;;;;;;5012066;28;20216;-59
2024/03/21 09:14:56;;;;;;;2.53;2.20;;;14.50;47.60;;;;;;5009839;28;20734;-59
2024/03/21 09:17:22;;;;;;;2.93;2.40;;;14.30;49.70;;;;;;5009846;28;20427;-59
2024/03/21 09:19:48;;;;;;;3.30;2.70;;;14.10;51.70;;;;;;5008923;28;20209;-59
2024/03/21 09:22:14;;;;;;;2.30;2.10;;;14.00;53.90;;;;;;4995017;28;20321;-59
2024/03/21 09:24:41;;;;;;;3.60;2.83;;;13.90;54.40;;;;;;5007218;28;20289;-58
2024/03/21 09:27:06;;;;;;;3.40;2.60;;;13.80;55.30;;;;;;5008305;28;20208;-59
2024/03/21 09:29:33;;;;;;;3.37;2.70;;;13.60;57.00;;;;;;5007219;28;20274;-58
2024/03/21 09:31:59;;;;;;;2.87;2.63;;;13.60;59.60;;;;;;5011922;28;20716;-59
2024/03/21 09:34:26;;;;;;;3.87;2.90;;;13.40;60.30;;;;;;5007265;28;20195;-59
2024/03/21 09:36:52;;;;;;;5.30;3.23;;;13.30;61.80;;;;;;5000203;28;20215;-57
2024/03/21 09:39:18;;;;;;;3.67;3.00;;;13.30;61.90;;;;;;5010431;28;20222;-57
2024/03/21 09:41:45;;;;;;;3.33;3.03;;;13.30;60.80;;;;;;5013423;28;20757;-59
2024/03/21 09:44:10;;;;;;;3.37;3.03;;;13.20;61.40;;;;;;5005332;28;20199;-59
2024/03/21 09:46:39;;;;;;;3.70;2.93;;;13.10;61.70;;;;;;5001775;28;20230;-58
2024/03/21 09:49:04;;;;;;;4.00;3.50;;;13.10;60.90;;;;;;5002941;28;20687;-58
2024/03/21 09:51:31;;;;;;;5.70;3.50;;;13.00;61.50;;;;;;5003506;28;20300;-59
2024/03/21 09:53:57;;;;;;;3.50;3.20;;;13.10;61.80;;;;;;4999984;28;20208;-59
2024/03/21 09:56:23;;;;;;;5.23;3.87;;;12.90;62.90;;;;;;5008733;28;20209;-59
2024/03/21 09:58:49;;;;;;;3.83;3.40;;;12.80;64.10;;;;;;5013469;28;20209;-59
2024/03/21 10:01:15;;;;;;;3.87;3.47;;;12.90;63.20;;;;;;5013415;28;20209;-60
2024/03/21 10:03:41;;;;;;;3.73;3.20;;;13.00;63.40;;;;;;5012768;28;20227;-57
2024/03/21 10:06:08;;;;;;;4.00;3.70;;;12.90;63.70;;;;;;5010498;28;20203;-58
2024/03/21 10:08:33;;;;;;;5.90;3.90;;;12.80;65.50;;;;;;4986295;28;20243;-57
2024/03/21 10:11:00;;;;;;;4.53;3.70;;;12.90;64.80;;;;;;5005656;28;20311;-56
2024/03/21 10:13:26;;;;;;;5.33;3.77;;;12.80;65.10;;;;;;4993201;28;20206;-58
2024/03/21 10:15:52;;;;;;;4.57;3.77;;;12.80;65.80;;;;;;4999530;28;20405;-58
2024/03/21 10:18:18;;;;;;;4.13;3.73;;;12.70;66.70;;;;;;5005861;28;20298;-57
2024/03/21 10:20:44;;;;;;;4.40;4.00;;;12.60;68.10;;;;;;5005034;28;20195;-58
2024/03/21 10:23:10;;;;;;;4.23;3.80;;;12.70;68.20;;;;;;5004564;28;20238;-57
2024/03/21 10:25:37;;;;;;;5.07;3.80;;;12.70;68.30;;;;;;5000530;28;20202;-58
2024/03/21 10:28:02;;;;;;;4.33;3.93;;;12.60;68.90;;;;;;5009717;28;20219;-58
2024/03/21 10:30:29;;;;;;;5.40;3.77;;;12.60;68.90;;;;;;5002249;28;20262;-57
2024/03/21 10:32:54;;;;;;;3.93;3.53;;;12.50;69.40;;;;;;5011548;28;20601;-60
2024/03/21 10:35:21;;;;;;;3.70;3.40;;;12.60;69.00;;;;;;5002496;28;20204;-59
2024/03/21 10:37:46;;;;;;;6.63;4.20;;;12.70;69.10;;;;;;4998723;28;20766;-60
2024/03/21 10:40:13;;;;;;;4.07;3.77;;;12.60;69.50;;;;;;5009554;28;20301;-60
2024/03/21 10:42:39;;;;;;;5.00;4.07;;;12.50;71.10;;;;;;5008994;28;20230;-60
2024/03/21 10:45:05;;;;;;;4.60;3.70;;;12.40;72.10;;;;;;5000808;28;20585;-60
2024/03/21 10:47:31;;;;;;;4.70;3.40;;;12.50;72.50;;;;;;4999720;28;20558;-61
2024/03/21 10:49:57;;;;;;;3.90;3.60;;;12.60;72.40;;;;;;5002908;28;20206;-60
2024/03/21 10:52:23;;;;;;;4.63;3.53;;;12.50;72.80;;;;;;4997539;28;20237;-60
2024/03/21 10:54:50;;;;;;;5.40;3.83;;;12.40;73.50;;;;;;5010829;28;20204;-60
2024/03/21 10:57:16;;;;;;;4.00;3.60;;;12.40;73.20;;;;;;5011685;28;20214;-61
2024/03/21 10:59:42;;;;;;;4.43;3.47;;;12.30;73.40;;;;;;5009939;28;20213;-60
2024/03/21 11:02:08;;;;;;;4.93;3.90;;;12.50;73.90;;;;;;4984438;28;24933;-61
2024/03/21 11:04:35;;;;;;;4.57;3.80;;;12.50;74.00;;;;;;4984007;28;20219;-61
2024/03/21 11:07:00;;;;;;;5.20;3.73;;;12.40;73.90;;;;;;5011780;28;20210;-61
2024/03/21 11:09:27;;;;;;;3.90;3.60;;;12.40;73.90;;;;;;4995459;28;20204;-60
2024/03/21 11:11:52;;;;;;;4.17;3.83;;;12.40;74.30;;;;;;5010286;28;20226;-61
2024/03/21 11:14:19;;;;;;;5.20;4.17;;;12.50;73.90;;;;;;4998856;28;20207;-61
2024/03/21 11:16:44;;;;;;;4.50;4.10;;;12.40;73.90;;;;;;5004685;28;20213;-63
2024/03/21 11:19:11;;;;;;;4.53;3.77;;;12.30;74.20;;;;;;5006633;28;20264;-61
2024/03/21 11:21:40;;;;;;;6.10;3.83;;;12.30;73.80;;;;;;5000651;28;20223;-61
2024/03/21 11:24:07;;;;;;;4.27;3.87;;;12.20;74.70;;;;;;4990261;28;20682;-59
2024/03/21 11:26:32;;;;;;;4.20;3.50;;;12.30;75.00;;;;;;5005680;28;20221;-60
2024/03/21 11:28:59;;;;;;;3.63;3.33;;;12.30;74.60;;;;;;5007533;28;20202;-60
2024/03/21 11:31:24;;;;;;;5.20;3.40;;;12.20;74.10;;;;;;5012724;28;20226;-61
2024/03/21 11:33:51;;;;;;;3.43;3.07;;;12.30;74.20;;;;;;5000351;28;20579;-60
2024/03/21 11:36:17;;;;;;;3.77;3.40;;;12.20;74.40;;;;;;5006554;28;20214;-61
2024/03/21 11:38:43;;;;;;;3.73;3.30;;;12.20;75.10;;;;;;5007854;28;20703;-61
2024/03/21 11:41:09;;;;;;;4.93;3.77;;;12.20;75.10;;;;;;5004011;28;20207;-61
2024/03/21 11:43:35;;;;;;;3.47;3.17;;;12.30;75.30;;;;;;5003266;28;20201;-61
2024/03/21 11:46:01;;;;;;;3.70;3.30;;;12.30;73.80;;;;;;5009997;28;20216;-61
2024/03/21 11:48:27;;;;;;;3.93;3.40;;;12.40;73.90;;;;;;5001721;28;20212;-61
2024/03/21 11:50:53;;;;;;;4.17;3.47;;;12.40;74.90;;;;;;5007824;28;20235;-61
2024/03/21 11:53:20;;;;;;;3.43;3.13;;;12.40;74.40;;;;;;5008873;28;20317;-59
2024/03/21 11:55:45;;;;;;;4.37;3.70;;;12.40;73.40;;;;;;5003689;28;20214;-59
2024/03/21 11:58:12;;;;;;;3.83;3.33;;;12.40;74.70;;;;;;5008267;28;20206;-59
2024/03/21 12:00:38;;;;;;;4.73;3.30;;;12.40;73.90;;;;;;5010445;28;20732;-58
2024/03/21 12:03:04;;;;;;;3.57;3.07;;;12.50;73.90;;;;;;5010895;28;20255;-60
2024/03/21 12:05:30;;;;;;;4.63;3.53;;;12.60;73.80;;;;;;5005148;28;20225;-59
2024/03/21 12:07:56;;;;;;;4.33;3.40;;;12.60;73.00;;;;;;5007752;28;20210;-58
2024/03/21 12:10:22;;;;;;;3.63;3.13;;;12.70;72.60;;;;;;5007355;28;20278;-56
2024/03/21 12:12:48;;;;;;;3.53;3.23;;;12.70;73.20;;;;;;5011093;28;20678;-58
2024/03/21 12:15:14;;;;;;;3.30;3.00;;;12.60;73.10;;;;;;5009212;28;20206;-57
2024/03/21 12:17:41;;;;;;;4.67;3.27;;;12.70;72.20;;;;;;5013843;28;20206;-64
2024/03/21 12:20:06;;;;;;;3.33;3.03;;;12.80;72.70;;;;;;5013387;28;20211;-60
2024/03/21 12:22:33;;;;;;;4.63;3.53;;;12.80;72.50;;;;;;5007851;28;20225;-59
2024/03/21 12:24:58;;;;;;;4.57;3.57;;;13.00;72.60;;;;;;5009040;28;20225;-60
2024/03/21 12:27:25;;;;;;;3.93;3.30;;;13.10;72.40;;;;;;5011702;28;20665;-58
2024/03/21 12:29:50;;;;;;;3.60;3.30;;;13.10;73.00;;;;;;5008902;28;20214;-60
2024/03/21 12:32:17;;;;;;;4.93;3.30;;;13.10;71.30;;;;;;5010240;28;20230;-60
2024/03/21 12:34:43;;;;;;;5.27;3.30;;;13.00;70.90;;;;;;5008754;28;20277;-59
2024/03/21 12:37:11;;;;;;;3.53;3.23;;;13.10;70.30;;;;;;5013360;28;20216;-60
2024/03/21 12:39:36;;;;;;;3.80;3.10;;;13.00;70.50;;;;;;5002018;28;20559;-60
2024/03/21 12:42:03;;;;;;;3.90;2.83;;;13.00;70.90;;;;;;5004282;28;20273;-60
2024/03/21 12:44:29;;;;;;;4.57;3.43;;;13.10;70.00;;;;;;5012670;28;20259;-60